Time;durP1;ratioP1;P1;durP2;ratioP2;P2;SDS_P1;SDS_P2;PMS_P1;PMS_P2;Temp;Humidity;BMP_temperature;BMP_pressure;BME280_temperature;BME280_humidity;BME280_pressure;Samples;Min_cycle;Max_cycle;Signal;HPM_P1;HPM_P2
2021/03/08 00:00:44;;;;;;;13.38;7.90;;;;;;;1.62;70.26;100940.03;5097311;28;20048;-74
2021/03/08 00:03:12;;;;;;;13.55;8.52;;;;;;;1.59;69.90;100941.81;5097139;28;20059;-74
2021/03/08 00:05:39;;;;;;;11.25;8.20;;;;;;;1.59;70.49;100947.94;5097001;28;20048;-74
2021/03/08 00:08:05;;;;;;;14.43;8.40;;;;;;;1.55;70.57;100932.22;5096911;28;20055;-74
2021/03/08 00:10:32;;;;;;;11.82;8.02;;;;;;;1.49;70.22;100933.16;5096747;28;20062;-74
2021/03/08 00:12:58;;;;;;;14.05;8.48;;;;;;;1.55;70.60;100942.72;5096884;28;20074;-74
2021/03/08 00:15:25;;;;;;;13.05;8.18;;;;;;;1.61;71.08;100945.31;5096037;28;20056;-74
2021/03/08 00:17:52;;;;;;;10.73;7.72;;;;;;;1.55;70.66;100938.34;5096891;28;20048;-74
2021/03/08 00:20:23;;;;;;;16.67;8.98;;;;;;;1.47;71.12;100948.09;5062588;28;20071;-74
2021/03/08 00:22:50;;;;;;;16.05;8.95;;;;;;;1.48;71.56;100955.09;5096495;28;20445;-74
2021/03/08 00:25:20;;;;;;;12.68;8.98;;;;;;;1.41;71.18;100949.00;5095934;28;20066;-73
2021/03/08 00:27:46;;;;;;;16.55;8.98;;;;;;;1.39;71.37;100947.28;5096749;28;20150;-73
2021/03/08 00:30:14;;;;;;;14.35;8.82;;;;;;;1.39;70.97;100949.91;5095265;28;20369;-74
2021/03/08 00:32:41;;;;;;;14.50;9.13;;;;;;;1.37;71.28;100946.44;5096652;28;20119;-74
2021/03/08 00:35:08;;;;;;;14.25;8.98;;;;;;;1.27;71.65;100941.28;5078477;28;20067;-74
2021/03/08 00:37:35;;;;;;;12.85;8.88;;;;;;;1.24;72.55;100951.81;5096114;28;20464;-74
2021/03/08 00:40:07;;;;;;;15.15;8.98;;;;;;;1.24;72.39;100940.44;5078395;28;20097;-74
2021/03/08 00:42:34;;;;;;;17.85;9.85;;;;;;;1.20;72.35;100929.94;5096625;28;20043;-74
2021/03/08 00:45:04;;;;;;;15.15;9.00;;;;;;;1.26;71.95;100941.28;5096375;28;20322;-74
2021/03/08 00:47:30;;;;;;;15.85;9.48;;;;;;;1.31;71.92;100942.13;5096345;28;20052;-74
2021/03/08 00:49:56;;;;;;;16.90;9.38;;;;;;;1.34;71.53;100942.97;5096102;28;20062;-74
2021/03/08 00:52:23;;;;;;;15.50;9.35;;;;;;;1.27;71.46;100940.38;5096269;28;20048;-74
2021/03/08 00:54:49;;;;;;;13.68;8.63;;;;;;;1.27;71.41;100938.66;5096147;28;20101;-74
2021/03/08 00:57:15;;;;;;;13.90;8.55;;;;;;;1.35;71.07;100943.81;5078201;28;20098;-73
2021/03/08 00:59:41;;;;;;;14.38;9.55;;;;;;;1.34;71.46;100944.69;5095640;28;20460;-74
2021/03/08 01:02:07;;;;;;;17.00;9.48;;;;;;;1.34;71.33;100947.34;5096142;28;20060;-74
2021/03/08 01:04:34;;;;;;;16.40;9.77;;;;;;;1.43;71.21;100943.75;5095739;28;20055;-74
2021/03/08 01:07:00;;;;;;;17.60;8.80;;;;;;;1.46;71.34;100946.31;5095834;28;20105;-74
2021/03/08 01:09:26;;;;;;;12.90;9.30;;;;;;;1.47;71.30;100948.09;5095903;28;20056;-74
2021/03/08 01:11:52;;;;;;;12.65;8.85;;;;;;;1.43;71.34;100943.75;5096070;28;20044;-74
2021/03/08 01:14:18;;;;;;;15.80;9.77;;;;;;;1.33;72.01;100949.13;5096124;28;20074;-73
2021/03/08 01:16:44;;;;;;;14.15;9.50;;;;;;;1.37;71.51;100949.06;5096422;28;20051;-74
2021/03/08 01:19:11;;;;;;;18.10;10.18;;;;;;;1.43;71.60;100943.75;5078402;28;20047;-73
2021/03/08 01:21:37;;;;;;;16.02;9.13;;;;;;;1.43;71.08;100934.09;5095873;28;20052;-74
2021/03/08 01:24:04;;;;;;;14.15;9.45;;;;;;;1.49;71.34;100936.66;5095522;28;20053;-74
2021/03/08 01:26:30;;;;;;;13.57;9.90;;;;;;;1.45;71.57;100934.94;5095580;28;20550;-73
2021/03/08 01:28:56;;;;;;;13.73;9.25;;;;;;;1.43;71.60;100926.22;5095553;28;20075;-73
2021/03/08 01:31:22;;;;;;;12.65;8.77;;;;;;;1.48;71.88;100937.53;5077691;28;20047;-74
2021/03/08 01:33:51;;;;;;;15.52;9.15;;;;;;;1.41;72.32;100927.13;5077431;28;20048;-74
2021/03/08 01:36:19;;;;;;;17.25;10.27;;;;;;;1.45;72.22;100928.81;5095877;28;20109;-73
2021/03/08 01:38:46;;;;;;;16.40;10.23;;;;;;;1.47;71.85;100930.53;5078069;28;20052;-73
2021/03/08 01:41:12;;;;;;;16.83;9.73;;;;;;;1.45;71.32;100919.16;5077186;28;20040;-73
2021/03/08 01:43:39;;;;;;;15.88;10.05;;;;;;;1.48;72.13;100932.28;5077044;28;20773;-73
2021/03/08 01:46:05;;;;;;;15.77;9.88;;;;;;;1.49;72.41;100935.78;5077722;28;20128;-73
2021/03/08 01:48:32;;;;;;;16.92;9.48;;;;;;;1.51;71.95;100933.16;5095067;28;20094;-73
2021/03/08 01:50:59;;;;;;;15.23;10.27;;;;;;;1.46;72.20;100909.50;5095224;28;20044;-73
2021/03/08 01:53:28;;;;;;;15.68;9.23;;;;;;;1.64;71.98;100921.59;5095259;28;20105;-74
2021/03/08 01:55:55;;;;;;;15.48;9.98;;;;;;;1.67;70.73;100921.53;5095554;28;20055;-74
2021/03/08 01:58:23;;;;;;;15.30;9.77;;;;;;;1.69;70.62;100913.66;5095244;28;20125;-74
2021/03/08 02:00:51;;;;;;;15.02;9.35;;;;;;;1.65;71.07;100912.81;5095263;28;20079;-74
2021/03/08 02:03:17;;;;;;;16.45;9.85;;;;;;;1.65;71.23;100910.19;5094396;28;20090;-74
2021/03/08 02:05:46;;;;;;;15.25;9.57;;;;;;;1.67;71.19;100900.50;5095223;28;20048;-74
2021/03/08 02:08:16;;;;;;;16.05;9.77;;;;;;;1.64;72.07;100908.44;5094912;28;20066;-73
2021/03/08 02:10:43;;;;;;;16.85;10.57;;;;;;;1.63;72.19;100904.94;5094924;28;20418;-74
2021/03/08 02:13:24;;;;;;;16.75;10.63;;;;;;;1.60;71.91;100896.19;5094879;28;20052;-73
2021/03/08 02:16:06;;;;;;;18.55;11.25;;;;;;;1.66;71.70;100895.25;5094744;28;20417;-73
2021/03/08 02:18:40;;;;;;;17.08;10.80;;;;;;;1.67;71.86;100897.88;5077209;28;20086;-74
2021/03/08 02:21:06;;;;;;;19.95;10.98;;;;;;;1.69;71.96;100895.22;5095154;28;20051;-73
2021/03/08 02:23:59;;;;;;;16.10;10.95;;;;;;;1.67;72.05;100894.34;5095115;28;20052;-74
2021/03/08 02:26:44;;;;;;;18.70;11.38;;;;;;;1.72;72.23;100890.78;5095081;28;20059;-73
2021/03/08 02:29:43;;;;;;;18.20;11.23;;;;;;;1.73;72.08;100897.78;5094583;28;20093;-73
2021/03/08 02:32:12;;;;;;;16.17;11.13;;;;;;;1.72;71.98;100903.06;5076584;28;20044;-73
2021/03/08 02:34:49;;;;;;;20.90;11.98;;;;;;;1.69;72.03;100885.53;5094951;28;20051;-73
2021/03/08 02:37:20;;;;;;;20.25;12.77;;;;;;;1.74;72.11;100894.25;5094791;28;20044;-73
2021/03/08 02:39:50;;;;;;;18.55;11.15;;;;;;;1.69;72.28;100892.59;5094623;28;20082;-73
2021/03/08 02:42:25;;;;;;;20.10;12.07;;;;;;;1.75;72.30;100898.63;5095079;28;20048;-73
2021/03/08 02:44:58;;;;;;;14.57;10.73;;;;;;;1.73;72.58;100891.66;5095023;28;20093;-72
2021/03/08 02:47:27;;;;;;;20.05;11.05;;;;;;;1.76;72.36;100896.88;5095128;28;20056;-73
2021/03/08 02:49:55;;;;;;;19.02;11.48;;;;;;;1.75;72.77;100882.00;5076758;28;20425;-73
2021/03/08 02:52:26;;;;;;;21.15;11.93;;;;;;;1.85;71.98;100880.97;5094514;28;20052;-73
2021/03/08 02:54:56;;;;;;;19.08;12.45;;;;;;;1.74;72.04;100873.22;5098468;28;20068;-73
2021/03/08 02:57:27;;;;;;;25.40;12.50;;;;;;;1.74;72.62;100872.34;5098789;28;20449;-74
2021/03/08 02:59:55;;;;;;;23.13;11.55;;;;;;;1.74;72.22;100878.47;5098282;28;20056;-73
2021/03/08 03:02:23;;;;;;;19.65;10.82;;;;;;;1.78;71.89;100888.97;5098390;28;20044;-73
2021/03/08 03:04:51;;;;;;;19.50;12.95;;;;;;;1.78;72.24;100876.66;5098153;28;20052;-73
2021/03/08 03:07:18;;;;;;;20.33;11.85;;;;;;;1.82;72.52;100880.13;5098803;28;20052;-73
2021/03/08 03:09:45;;;;;;;18.40;11.48;;;;;;;1.79;72.82;100878.41;5080772;28;20105;-73
2021/03/08 03:12:13;;;;;;;20.50;12.20;;;;;;;1.69;73.20;100880.28;5098419;28;20127;-73
2021/03/08 03:14:43;;;;;;;20.27;13.20;;;;;;;1.69;73.49;100868.91;5098004;28;20430;-73
2021/03/08 03:17:13;;;;;;;22.45;12.93;;;;;;;1.80;73.24;100881.94;5098008;28;20056;-74
2021/03/08 03:19:42;;;;;;;;;;;;;;;1.71;72.90;100893.44;5098307;28;20048;-74
2021/03/08 03:22:09;;;;;;;17.05;11.35;;;;;;;1.70;73.12;100884.66;5097736;28;20268;-73
2021/03/08 03:24:37;;;;;;;18.85;12.07;;;;;;;1.66;73.19;100887.34;5098201;28;20134;-73
2021/03/08 03:27:04;;;;;;;23.70;13.60;;;;;;;1.53;73.88;100881.38;5097831;28;20051;-73
2021/03/08 03:29:33;;;;;;;23.38;13.25;;;;;;;1.56;73.82;100882.22;5098491;28;20114;-73
2021/03/08 03:32:01;;;;;;;21.05;13.48;;;;;;;1.55;73.92;100884.84;5097792;28;20059;-74
2021/03/08 03:34:29;;;;;;;20.15;13.07;;;;;;;1.43;74.13;100878.88;5098137;28;20056;-73
2021/03/08 03:36:58;;;;;;;23.80;13.75;;;;;;;1.39;74.17;100871.88;5100889;28;20059;-73
2021/03/08 03:39:25;;;;;;;22.67;14.07;;;;;;;1.39;74.06;100885.03;5100101;28;20097;-73
2021/03/08 03:41:51;;;;;;;22.63;14.07;;;;;;;1.39;74.29;100881.53;5100223;28;20040;-73
2021/03/08 03:44:17;;;;;;;21.15;14.57;;;;;;;1.36;74.12;100866.63;5108169;28;20518;-73
2021/03/08 03:46:46;;;;;;;22.33;15.13;;;;;;;1.35;73.73;100875.44;5105640;28;20052;-74
2021/03/08 03:49:17;;;;;;;22.60;14.40;;;;;;;1.32;74.20;100888.63;5080985;28;20048;-74
2021/03/08 03:51:44;;;;;;;27.35;14.55;;;;;;;1.21;74.50;100892.22;5097528;28;20044;-74
2021/03/08 03:54:11;;;;;;;23.05;14.55;;;;;;;1.02;74.99;100874.88;5097411;28;20051;-74
2021/03/08 03:56:46;;;;;;;26.48;15.05;;;;;;;1.06;75.79;100895.00;5079370;28;20044;-73
2021/03/08 03:59:23;;;;;;;25.27;14.50;;;;;;;1.00;75.94;100905.59;5096952;28;20082;-74
2021/03/08 04:02:04;;;;;;;25.00;14.60;;;;;;;0.90;75.82;100905.69;5097353;28;20070;-74
2021/03/08 04:04:39;;;;;;;23.25;14.93;;;;;;;0.94;75.49;100901.28;5096565;28;20055;-74
2021/03/08 04:07:07;;;;;;;23.63;15.45;;;;;;;0.86;75.85;100905.72;5096959;28;20051;-74
2021/03/08 04:09:36;;;;;;;20.70;14.32;;;;;;;0.84;76.56;100908.38;5096859;28;20063;-73
2021/03/08 04:12:07;;;;;;;27.58;15.73;;;;;;;0.75;76.70;100905.78;5096890;28;20093;-73
2021/03/08 04:14:35;;;;;;;24.23;15.07;;;;;;;0.69;77.17;100906.72;5096540;28;20055;-73
2021/03/08 04:17:02;;;;;;;20.90;14.32;;;;;;;0.64;77.13;100912.03;5079309;28;20052;-73
2021/03/08 04:19:30;;;;;;;21.27;14.27;;;;;;;0.62;76.98;100916.44;5096975;28;20088;-73
2021/03/08 04:22:01;;;;;;;21.30;14.13;;;;;;;0.61;77.39;100919.06;5096828;28;20044;-73
2021/03/08 04:24:29;;;;;;;;;;;;;;;0.59;77.17;100926.94;5097146;28;20062;-73
2021/03/08 04:26:59;;;;;;;23.58;14.93;;;;;;;0.48;77.71;100926.16;5079032;28;20202;-74
2021/03/08 04:29:25;;;;;;;25.50;14.95;;;;;;;0.53;77.27;100929.59;5096500;28;20083;-73
2021/03/08 04:32:00;;;;;;;27.17;15.63;;;;;;;0.50;77.21;100919.13;5096384;28;20437;-73
2021/03/08 04:34:28;;;;;;;27.60;16.00;;;;;;;0.50;77.70;100932.28;5079030;28;20388;-73
2021/03/08 04:36:55;;;;;;;26.17;16.23;;;;;;;0.45;77.42;100923.53;5096758;28;20055;-73
2021/03/08 04:39:22;;;;;;;24.13;16.73;;;;;;;0.34;77.88;100927.13;5078758;28;20054;-74
2021/03/08 04:41:50;;;;;;;29.05;16.60;;;;;;;0.25;78.10;100932.41;5062285;28;20056;-73
2021/03/08 04:44:17;;;;;;;26.60;16.48;;;;;;;0.24;78.71;100942.06;5078546;28;20202;-73
2021/03/08 04:46:44;;;;;;;27.23;16.55;;;;;;;0.21;78.49;100926.31;5096124;28;20502;-73
2021/03/08 04:49:11;;;;;;;27.33;16.50;;;;;;;0.21;78.76;100941.22;5095903;28;20062;-73
2021/03/08 04:51:39;;;;;;;30.00;17.25;;;;;;;0.18;78.57;100931.59;5078333;28;20094;-73
2021/03/08 04:54:06;;;;;;;26.58;16.83;;;;;;;0.25;78.56;100941.19;5078637;28;20048;-73
2021/03/08 04:56:34;;;;;;;33.42;18.77;;;;;;;0.31;77.89;100937.63;5096009;28;20105;-73
2021/03/08 04:59:01;;;;;;;40.13;21.17;;;;;;;0.34;77.55;100937.63;5096047;28;20060;-74
2021/03/08 05:01:32;;;;;;;31.20;18.23;;;;;;;0.35;77.28;100933.22;5096130;28;20048;-73
2021/03/08 05:04:01;;;;;;;25.70;17.02;;;;;;;0.37;77.72;100937.59;5095800;28;20086;-72
2021/03/08 05:06:29;;;;;;;33.92;19.20;;;;;;;0.27;78.10;100938.50;5096083;28;20059;-74
2021/03/08 05:08:57;;;;;;;33.53;20.10;;;;;;;0.30;77.87;100940.25;5095888;28;20056;-74
2021/03/08 05:11:24;;;;;;;31.92;19.35;;;;;;;0.24;78.38;100942.06;5078151;28;20087;-74
2021/03/08 05:13:53;;;;;;;31.05;18.95;;;;;;;0.32;78.20;100939.38;5077975;28;20048;-74
2021/03/08 05:16:21;;;;;;;34.33;21.00;;;;;;;0.32;78.86;100942.00;5094944;28;20060;-74
2021/03/08 05:18:48;;;;;;;37.15;20.70;;;;;;;0.48;78.00;100939.28;5095350;28;20441;-74
2021/03/08 05:21:16;;;;;;;35.08;21.52;;;;;;;0.62;77.50;100947.06;5095863;28;20052;-74
2021/03/08 05:23:44;;;;;;;36.30;20.95;;;;;;;0.71;77.04;100948.75;5095914;28;20054;-74
2021/03/08 05:26:10;;;;;;;38.75;21.67;;;;;;;0.69;77.45;100947.91;5095788;28;20109;-74
2021/03/08 05:28:37;;;;;;;35.15;22.08;;;;;;;0.74;77.06;100946.97;5095752;28;20055;-74
2021/03/08 05:31:05;;;;;;;32.15;19.63;;;;;;;0.71;77.32;100940.88;5095583;28;20044;-74
2021/03/08 05:33:32;;;;;;;31.92;20.15;;;;;;;0.72;77.32;100932.09;5095630;28;20052;-74
2021/03/08 05:36:00;;;;;;;41.80;20.10;;;;;;;0.63;78.06;100928.66;5095561;28;20051;-74
2021/03/08 05:38:28;;;;;;;37.63;21.27;;;;;;;0.67;77.94;100945.28;5094347;28;20052;-74
2021/03/08 05:41:17;;;;;;;36.53;21.33;;;;;;;0.67;77.75;100927.75;5095583;28;20047;-74
2021/03/08 05:43:47;;;;;;;41.08;22.05;;;;;;;0.69;77.94;100938.25;5069240;28;20052;-75
2021/03/08 05:46:26;;;;;;;43.33;22.63;;;;;;;0.74;77.98;100944.34;5077654;28;20486;-74
2021/03/08 05:48:55;;;;;;;36.38;22.08;;;;;;;0.74;78.20;100935.59;5077381;28;20460;-75
2021/03/08 05:51:59;;;;;;;42.42;21.90;;;;;;;0.76;78.29;100941.72;5095336;28;20059;-74
2021/03/08 05:54:59;;;;;;;37.60;20.45;;;;;;;0.82;77.92;100946.94;5095298;28;20455;-74
2021/03/08 05:57:38;;;;;;;45.50;22.67;;;;;;;0.80;77.95;100943.41;5095555;28;20059;-74
2021/03/08 06:00:23;;;;;;;37.67;22.15;;;;;;;0.76;78.86;100945.19;5077273;28;20114;-75
2021/03/08 06:02:52;;;;;;;42.60;23.50;;;;;;;0.72;78.73;100943.50;5095292;28;20076;-75
2021/03/08 06:05:49;;;;;;;44.40;24.13;;;;;;;0.75;78.74;100947.84;5095085;28;20139;-75
2021/03/08 06:08:44;;;;;;;38.20;22.33;;;;;;;0.73;78.79;100954.88;5095851;28;20044;-74
2021/03/08 06:11:12;;;;;;;37.70;22.08;;;;;;;0.71;78.60;100956.66;5078828;28;20052;-74
2021/03/08 06:13:53;;;;;;;48.58;24.35;;;;;;;0.67;78.61;100961.91;5098784;28;20052;-74
2021/03/08 06:16:40;;;;;;;;;;;;;;;0.63;79.04;100957.56;5095750;28;20056;-75
2021/03/08 06:19:07;;;;;;;40.13;22.23;;;;;;;0.62;79.02;100957.56;5094685;28;19920;-75
2021/03/08 06:21:35;;;;;;;41.28;23.52;;;;;;;0.54;78.94;100954.97;5095114;28;20377;-74
2021/03/08 06:24:04;;;;;;;42.63;22.80;;;;;;;0.56;79.11;100961.13;5095145;28;20044;-77
2021/03/08 06:26:31;;;;;;;41.47;24.25;;;;;;;0.51;79.42;100965.53;5094848;28;20056;-75
2021/03/08 06:28:58;;;;;;;45.35;25.25;;;;;;;0.53;79.76;100969.91;5096021;28;20097;-75
2021/03/08 06:31:28;;;;;;;46.92;25.38;;;;;;;0.48;79.98;100969.03;5098688;28;20368;-75
2021/03/08 06:33:56;;;;;;;46.80;24.38;;;;;;;0.49;79.91;100967.31;5099080;28;20383;-75
2021/03/08 06:36:23;;;;;;;48.75;25.75;;;;;;;0.37;80.02;100958.59;5099051;28;20048;-79
2021/03/08 06:38:50;;;;;;;44.97;24.15;;;;;;;0.49;79.76;100967.31;5098666;28;20555;-74
2021/03/08 06:41:16;;;;;;;47.78;25.85;;;;;;;0.38;80.15;100959.50;5098746;28;20048;-75
2021/03/08 06:43:43;;;;;;;46.25;25.90;;;;;;;0.48;80.19;100968.19;5098370;28;20425;-74
2021/03/08 06:46:13;;;;;;;47.05;27.17;;;;;;;0.45;80.41;100968.19;5098201;28;20055;-74
2021/03/08 06:48:41;;;;;;;47.53;26.08;;;;;;;0.61;79.85;100992.63;5080410;28;20413;-76
2021/03/08 06:51:13;;;;;;;46.33;26.90;;;;;;;0.53;80.49;100963.75;5098438;28;20079;-75
2021/03/08 06:53:41;;;;;;;55.70;26.75;;;;;;;0.69;80.16;100988.19;5097998;28;20098;-74
2021/03/08 06:56:18;;;;;;;54.30;27.67;;;;;;;0.71;80.03;100982.91;5080964;28;20052;-75
2021/03/08 06:58:46;;;;;;;47.30;26.30;;;;;;;0.75;80.00;100985.50;5098188;28;20503;-75
2021/03/08 07:01:28;;;;;;;56.90;28.05;;;;;;;0.74;79.78;100996.91;5096831;28;20048;-73
2021/03/08 07:04:17;;;;;;;47.67;26.25;;;;;;;0.75;80.71;100995.13;5077517;28;20081;-73
2021/03/08 07:07:05;;;;;;;55.55;28.23;;;;;;;0.78;80.62;101001.28;5094547;28;20361;-74
2021/03/08 07:09:33;;;;;;;52.45;28.00;;;;;;;0.74;80.20;100993.41;5096145;28;20047;-75
2021/03/08 07:12:05;;;;;;;49.72;27.10;;;;;;;0.83;80.31;101006.50;5097648;28;20044;-74
2021/03/08 07:14:32;;;;;;;52.85;28.25;;;;;;;0.89;80.05;101005.56;5094685;28;20048;-74
2021/03/08 07:16:58;;;;;;;54.75;28.35;;;;;;;0.90;80.04;101008.19;5097677;28;20060;-73
2021/03/08 07:19:25;;;;;;;57.83;29.98;;;;;;;0.97;80.69;101014.25;5093530;28;20044;-71
2021/03/08 07:21:52;;;;;;;58.05;30.38;;;;;;;1.04;80.55;101012.47;5097266;28;20130;-72
2021/03/08 07:24:19;;;;;;;63.45;30.75;;;;;;;1.09;79.78;101008.03;5097471;28;20044;-77
2021/03/08 07:26:55;;;;;;;60.88;29.77;;;;;;;1.18;79.28;101005.34;5092305;28;20063;-73
2021/03/08 07:29:23;;;;;;;59.28;29.35;;;;;;;1.31;78.96;101013.13;5092305;28;20044;-75
2021/03/08 07:31:54;;;;;;;54.33;29.33;;;;;;;1.43;79.29;101022.66;5079371;28;20067;-75
2021/03/08 07:34:47;;;;;;;56.38;31.48;;;;;;;1.54;78.83;101012.03;5096200;28;20054;-74
2021/03/08 07:37:13;;;;;;;59.30;32.28;;;;;;;1.62;78.07;101016.34;5095329;28;20048;-75
2021/03/08 07:39:51;;;;;;;62.78;33.13;;;;;;;1.63;78.20;101018.09;5094295;28;20052;-75
2021/03/08 07:42:17;;;;;;;58.72;31.60;;;;;;;1.76;77.85;101025.84;5095432;28;20066;-76
2021/03/08 07:44:51;;;;;;;57.20;32.30;;;;;;;1.82;77.79;101028.44;5078751;28;20071;-76
2021/03/08 07:47:18;;;;;;;60.80;32.17;;;;;;;1.90;77.87;101028.31;5095716;28;20048;-74
2021/03/08 07:49:45;;;;;;;61.38;33.13;;;;;;;2.07;77.31;101024.66;5096236;28;20058;-76
2021/03/08 07:52:13;;;;;;;66.55;34.13;;;;;;;2.19;76.43;101026.25;5096459;28;20044;-77
2021/03/08 07:55:10;;;;;;;65.57;34.15;;;;;;;2.26;75.53;101022.66;5095987;28;20097;-74
2021/03/08 07:57:37;;;;;;;59.58;32.22;;;;;;;2.33;75.34;101019.03;5079612;28;20061;-76
2021/03/08 08:00:04;;;;;;;63.25;33.70;;;;;;;2.39;75.85;101026.88;5078285;28;20085;-76
2021/03/08 08:02:30;;;;;;;59.88;34.33;;;;;;;2.41;75.27;101034.75;5096982;28;20074;-74
2021/03/08 08:05:02;;;;;;;68.68;33.85;;;;;;;2.32;75.27;101012.03;5096657;28;20542;-76
2021/03/08 08:07:31;;;;;;;61.28;32.90;;;;;;;2.44;75.24;101027.69;5094110;28;20048;-76
2021/03/08 08:10:01;;;;;;;67.18;37.38;;;;;;;2.44;74.98;101021.53;5078770;28;20433;-76
2021/03/08 08:12:32;;;;;;;65.70;36.03;;;;;;;2.40;75.40;101031.25;5096867;28;20048;-76
2021/03/08 08:15:10;;;;;;;64.03;33.10;;;;;;;2.42;75.71;101021.56;5078914;28;20059;-74
2021/03/08 08:17:40;;;;;;;66.30;35.03;;;;;;;2.45;75.69;101018.00;5093748;28;20040;-77
2021/03/08 08:20:09;;;;;;;67.13;35.10;;;;;;;2.34;75.55;101004.13;5096934;28;20063;-75
2021/03/08 08:22:42;;;;;;;64.43;35.47;;;;;;;2.54;75.19;101010.00;5097034;28;20055;-76
2021/03/08 08:25:11;;;;;;;65.45;35.47;;;;;;;2.60;75.16;101023.97;5079146;28;20079;-74
2021/03/08 08:27:38;;;;;;;64.75;34.95;;;;;;;2.63;75.11;101023.94;5097087;28;20052;-75
2021/03/08 08:30:05;;;;;;;65.85;35.97;;;;;;;2.68;75.27;101008.94;5096525;28;20352;-74
2021/03/08 08:32:49;;;;;;;65.28;35.65;;;;;;;2.80;75.32;101005.22;5093729;28;20494;-77
2021/03/08 08:35:33;;;;;;;69.97;36.97;;;;;;;2.84;74.47;101013.06;5076541;28;20053;-74
2021/03/08 08:38:11;;;;;;;65.03;35.42;;;;;;;2.88;73.94;101015.66;5076948;28;20349;-73
2021/03/08 08:40:39;;;;;;;66.55;36.53;;;;;;;2.81;74.23;101009.59;5090894;28;20392;-76
2021/03/08 08:43:15;;;;;;;63.83;36.95;;;;;;;2.84;74.18;101010.44;5104449;28;20047;-70
2021/03/08 08:45:46;;;;;;;70.88;37.40;;;;;;;2.80;74.21;101013.13;5108175;28;20051;-72
2021/03/08 08:48:12;;;;;;;66.45;35.53;;;;;;;2.78;74.67;101010.50;5100020;28;20054;-75
2021/03/08 08:50:58;;;;;;;63.35;35.03;;;;;;;2.85;74.50;101006.88;5061835;28;20052;-76
2021/03/08 08:53:39;;;;;;;64.75;36.63;;;;;;;2.98;74.11;101011.97;5078724;28;20097;-75
2021/03/08 08:56:06;;;;;;;59.08;34.85;;;;;;;3.10;73.51;101017.06;5096286;28;20048;-75
2021/03/08 08:58:48;;;;;;;63.45;34.25;;;;;;;3.10;72.87;101001.25;5096145;28;20048;-74
2021/03/08 09:01:25;;;;;;;61.33;34.92;;;;;;;3.11;73.09;101013.53;5077973;28;20048;-74
2021/03/08 09:03:53;;;;;;;60.72;34.28;;;;;;;3.18;73.13;101011.69;5095950;28;20143;-73
2021/03/08 09:06:59;;;;;;;62.10;33.78;;;;;;;3.21;72.56;101005.47;5078255;28;20048;-74
2021/03/08 09:09:32;;;;;;;54.33;32.63;;;;;;;3.31;72.15;101001.78;5077993;28;20048;-73
2021/03/08 09:12:08;;;;;;;58.50;32.22;;;;;;;3.33;71.94;100994.69;5095564;28;20406;-72
2021/03/08 09:14:49;;;;;;;60.25;33.20;;;;;;;3.39;71.48;100991.09;5095725;28;20432;-73
2021/03/08 09:17:26;;;;;;;;;;;;;;;3.55;70.66;100993.44;5096404;28;20052;-73
2021/03/08 09:19:55;;;;;;;57.90;31.92;;;;;;;3.56;70.70;100990.78;5095660;28;19944;-73
2021/03/08 09:22:27;;;;;;;56.97;31.25;;;;;;;3.59;70.38;100992.50;5095132;28;20044;-74
2021/03/08 09:24:58;;;;;;;54.95;32.67;;;;;;;3.56;70.21;100982.00;5095602;28;20704;-72
2021/03/08 09:27:32;;;;;;;57.65;30.88;;;;;;;3.60;68.77;100992.47;5095870;28;20074;-74
2021/03/08 09:30:34;;;;;;;51.97;31.13;;;;;;;3.74;68.61;100994.84;5095463;28;20048;-74
2021/03/08 09:33:13;;;;;;;51.58;28.70;;;;;;;3.88;68.48;100989.28;5067944;28;20052;-73
2021/03/08 09:35:47;;;;;;;50.80;29.58;;;;;;;4.04;67.84;100992.50;5095919;28;20101;-73
2021/03/08 09:38:15;;;;;;;50.65;29.38;;;;;;;4.19;66.62;100991.31;5095792;28;20131;-72
2021/03/08 09:40:45;;;;;;;51.38;30.50;;;;;;;4.20;66.66;100995.69;5096285;28;20056;-74
2021/03/08 09:43:21;;;;;;;51.80;29.10;;;;;;;4.42;66.31;100995.22;5098394;28;20059;-75
2021/03/08 09:46:00;;;;;;;44.10;26.70;;;;;;;4.34;64.05;100990.13;5097341;28;20062;-73
2021/03/08 09:48:29;;;;;;;43.20;25.50;;;;;;;4.58;63.49;101000.19;5096597;28;20054;-72
2021/03/08 09:51:27;;;;;;;51.47;28.38;;;;;;;4.46;63.73;100991.63;5096090;28;20132;-72
2021/03/08 09:53:57;;;;;;;49.58;27.23;;;;;;;4.41;64.71;101000.56;5051818;28;20051;-73
2021/03/08 09:56:26;;;;;;;46.15;25.60;;;;;;;4.37;63.55;101001.53;5095619;28;20052;-72
2021/03/08 09:59:03;;;;;;;41.83;25.48;;;;;;;4.45;63.23;100996.94;5095210;28;20052;-72
2021/03/08 10:01:32;;;;;;;47.10;25.58;;;;;;;4.77;63.47;100998.00;5095734;28;20052;-72
2021/03/08 10:03:59;;;;;;;52.08;26.23;;;;;;;4.97;62.66;101000.16;5080149;28;20048;-72
2021/03/08 10:06:45;;;;;;;47.70;26.48;;;;;;;5.15;62.06;100996.19;5099573;28;20349;-74
2021/03/08 10:09:18;;;;;;;43.58;25.30;;;;;;;5.32;61.51;100994.03;5099292;28;20048;-72
2021/03/08 10:11:45;;;;;;;44.70;25.92;;;;;;;5.75;61.11;100995.53;5098171;28;20093;-72
2021/03/08 10:14:24;;;;;;;37.83;23.25;;;;;;;6.11;59.46;100987.47;5099246;28;20085;-71
2021/03/08 10:17:06;;;;;;;39.22;22.83;;;;;;;6.13;57.55;100986.56;5099451;28;20063;-72
2021/03/08 10:19:33;;;;;;;40.67;22.52;;;;;;;5.84;57.92;100984.69;5099541;28;20071;-73
2021/03/08 10:22:00;;;;;;;38.28;21.98;;;;;;;5.92;57.91;100997.72;5064649;28;20056;-72
2021/03/08 10:24:34;;;;;;;42.85;24.33;;;;;;;5.82;58.61;100999.75;5081278;28;20051;-73
2021/03/08 10:27:01;;;;;;;42.67;24.27;;;;;;;5.94;58.47;100989.72;5099194;28;20101;-72
2021/03/08 10:29:27;;;;;;;40.65;25.00;;;;;;;6.15;58.40;100992.72;5098877;28;20082;-72
2021/03/08 10:31:54;;;;;;;46.30;27.23;;;;;;;6.30;58.39;100992.25;5080765;28;20501;-73
2021/03/08 10:34:21;;;;;;;47.97;26.23;;;;;;;6.12;57.73;100975.13;5098923;28;20048;-71
2021/03/08 10:37:04;;;;;;;37.28;22.02;;;;;;;6.26;56.66;100985.28;5098610;28;20318;-72
2021/03/08 10:39:31;;;;;;;37.50;22.20;;;;;;;6.24;56.35;100987.13;5080662;28;20433;-73
2021/03/08 10:41:58;;;;;;;33.90;21.20;;;;;;;6.08;57.07;100992.00;5080789;28;20085;-73
2021/03/08 10:44:24;;;;;;;38.65;20.77;;;;;;;6.22;56.98;100988.97;5098705;28;20094;-72
2021/03/08 10:46:50;;;;;;;36.70;22.15;;;;;;;6.15;57.25;100963.56;5098756;28;20063;-72
2021/03/08 10:49:17;;;;;;;41.17;21.67;;;;;;;6.39;56.75;100989.31;5098912;28;20330;-76
2021/03/08 10:51:43;;;;;;;39.22;21.73;;;;;;;6.33;56.94;100984.19;5098208;28;20456;-73
2021/03/08 10:54:13;;;;;;;36.30;21.85;;;;;;;6.25;57.15;100994.16;5080366;28;20056;-73
2021/03/08 10:56:43;;;;;;;35.65;20.05;;;;;;;6.25;56.93;100983.56;5097763;28;20074;-76
2021/03/08 10:59:26;;;;;;;37.03;20.20;;;;;;;6.45;57.42;100980.31;5085155;28;20062;-76
2021/03/08 11:02:10;;;;;;;36.55;20.27;;;;;;;6.44;56.59;100989.19;5090748;28;20433;-75
2021/03/08 11:04:39;;;;;;;38.17;19.50;;;;;;;6.51;56.32;100993.41;5105342;28;20051;-72
2021/03/08 11:07:12;;;;;;;31.63;18.27;;;;;;;6.26;55.93;100980.00;5099791;28;20056;-74
2021/03/08 11:09:43;;;;;;;33.20;19.77;;;;;;;6.09;57.62;100994.63;5098762;28;20375;-72
2021/03/08 11:12:20;;;;;;;35.05;19.55;;;;;;;6.29;57.40;100979.03;5082155;28;20059;-72
2021/03/08 11:14:54;;;;;;;36.58;21.23;;;;;;;6.26;57.14;100977.34;5097647;28;20055;-76
2021/03/08 11:17:33;;;;;;;32.05;19.17;;;;;;;6.11;56.65;100976.88;5098061;28;20403;-73
2021/03/08 11:20:15;;;;;;;29.70;16.42;;;;;;;6.33;56.03;100981.53;5096656;28;20067;-74
2021/03/08 11:22:57;;;;;;;30.88;18.30;;;;;;;6.52;56.09;100981.88;5097851;28;20058;-74
2021/03/08 11:25:37;;;;;;;30.98;17.20;;;;;;;6.73;55.09;100979.47;5096846;28;20083;-73
2021/03/08 11:28:06;;;;;;;33.65;19.15;;;;;;;6.76;54.79;100979.34;5097365;28;20131;-72
2021/03/08 11:30:34;;;;;;;36.90;21.40;;;;;;;6.57;55.38;100972.88;5079515;28;20078;-74
2021/03/08 11:33:01;;;;;;;37.97;21.33;;;;;;;6.76;56.01;100978.50;5097540;28;20054;-74
2021/03/08 11:35:31;;;;;;;30.55;19.73;;;;;;;6.83;54.83;100974.72;5096840;28;20052;-72
2021/03/08 11:38:15;;;;;;;29.63;19.30;;;;;;;7.07;54.48;100981.00;5097261;28;20083;-72